sensor_id;sensor_type;location;lat;lon;timestamp;P1;durP1;ratioP1;P2;durP2;ratioP2
9374;SDS011;4727;51.202;6.344;2023-02-18T00:00:56;15.53;;;13.37;;
9374;SDS011;4727;51.202;6.344;2023-02-18T00:03:26;17.07;;;15.37;;
9374;SDS011;4727;51.202;6.344;2023-02-18T00:05:52;16.37;;;14.70;;
9374;SDS011;4727;51.202;6.344;2023-02-18T00:08:19;16.10;;;14.60;;
9374;SDS011;4727;51.202;6.344;2023-02-18T00:10:45;16.60;;;15.00;;
9374;SDS011;4727;51.202;6.344;2023-02-18T00:13:11;16.73;;;15.03;;
9374;SDS011;4727;51.202;6.344;2023-02-18T00:15:37;14.87;;;13.43;;
9374;SDS011;4727;51.202;6.344;2023-02-18T00:18:03;15.80;;;14.13;;
9374;SDS011;4727;51.202;6.344;2023-02-18T00:20:32;16.53;;;14.93;;
9374;SDS011;4727;51.202;6.344;2023-02-18T00:23:03;17.03;;;15.30;;
9374;SDS011;4727;51.202;6.344;2023-02-18T00:25:29;16.17;;;14.67;;
9374;SDS011;4727;51.202;6.344;2023-02-18T00:28:00;15.17;;;13.77;;
9374;SDS011;4727;51.202;6.344;2023-02-18T00:30:26;16.13;;;14.63;;
9374;SDS011;4727;51.202;6.344;2023-02-18T00:32:52;16.53;;;15.03;;
9374;SDS011;4727;51.202;6.344;2023-02-18T00:35:18;16.83;;;15.30;;
9374;SDS011;4727;51.202;6.344;2023-02-18T00:37:44;15.77;;;14.27;;
9374;SDS011;4727;51.202;6.344;2023-02-18T00:40:10;16.30;;;14.73;;
9374;SDS011;4727;51.202;6.344;2023-02-18T00:42:36;15.67;;;14.17;;
9374;SDS011;4727;51.202;6.344;2023-02-18T00:45:02;15.73;;;14.30;;
9374;SDS011;4727;51.202;6.344;2023-02-18T00:47:28;15.53;;;13.80;;
9374;SDS011;4727;51.202;6.344;2023-02-18T00:49:54;15.40;;;13.80;;
9374;SDS011;4727;51.202;6.344;2023-02-18T00:52:20;14.33;;;12.83;;
9374;SDS011;4727;51.202;6.344;2023-02-18T00:54:49;14.37;;;12.97;;
9374;SDS011;4727;51.202;6.344;2023-02-18T00:57:15;13.63;;;12.23;;
9374;SDS011;4727;51.202;6.344;2023-02-18T00:59:41;14.07;;;12.77;;
9374;SDS011;4727;51.202;6.344;2023-02-18T01:02:07;12.30;;;11.20;;
9374;SDS011;4727;51.202;6.344;2023-02-18T01:04:33;11.97;;;10.77;;
9374;SDS011;4727;51.202;6.344;2023-02-18T01:06:59;11.73;;;10.63;;
9374;SDS011;4727;51.202;6.344;2023-02-18T01:09:25;13.10;;;11.77;;
9374;SDS011;4727;51.202;6.344;2023-02-18T01:11:51;12.17;;;11.07;;
9374;SDS011;4727;51.202;6.344;2023-02-18T01:14:17;13.33;;;12.03;;
9374;SDS011;4727;51.202;6.344;2023-02-18T01:16:43;12.87;;;11.57;;
9374;SDS011;4727;51.202;6.344;2023-02-18T01:19:09;12.50;;;11.27;;
9374;SDS011;4727;51.202;6.344;2023-02-18T01:21:35;12.63;;;11.43;;
9374;SDS011;4727;51.202;6.344;2023-02-18T01:24:01;13.10;;;11.90;;
9374;SDS011;4727;51.202;6.344;2023-02-18T01:26:27;12.17;;;10.97;;
9374;SDS011;4727;51.202;6.344;2023-02-18T01:28:52;13.10;;;11.70;;
9374;SDS011;4727;51.202;6.344;2023-02-18T01:31:18;14.40;;;13.00;;
9374;SDS011;4727;51.202;6.344;2023-02-18T01:33:44;13.77;;;12.37;;
9374;SDS011;4727;51.202;6.344;2023-02-18T01:36:10;14.53;;;13.10;;
9374;SDS011;4727;51.202;6.344;2023-02-18T01:38:37;13.70;;;12.13;;
9374;SDS011;4727;51.202;6.344;2023-02-18T01:41:04;13.97;;;12.57;;
9374;SDS011;4727;51.202;6.344;2023-02-18T01:43:30;14.23;;;12.50;;
9374;SDS011;4727;51.202;6.344;2023-02-18T01:48:23;15.67;;;13.87;;
9374;SDS011;4727;51.202;6.344;2023-02-18T01:53:31;17.53;;;13.53;;
9374;SDS011;4727;51.202;6.344;2023-02-18T01:55:58;17.27;;;14.03;;
9374;SDS011;4727;51.202;6.344;2023-02-18T01:58:25;18.43;;;15.47;;
9374;SDS011;4727;51.202;6.344;2023-02-18T02:00:52;19.83;;;15.60;;
9374;SDS011;4727;51.202;6.344;2023-02-18T02:03:18;17.40;;;15.23;;
9374;SDS011;4727;51.202;6.344;2023-02-18T02:05:44;21.63;;;15.07;;
9374;SDS011;4727;51.202;6.344;2023-02-18T02:08:10;18.63;;;13.83;;
9374;SDS011;4727;51.202;6.344;2023-02-18T02:10:42;20.57;;;15.83;;
9374;SDS011;4727;51.202;6.344;2023-02-18T02:13:32;22.50;;;16.40;;
9374;SDS011;4727;51.202;6.344;2023-02-18T02:16:14;23.73;;;15.60;;
9374;SDS011;4727;51.202;6.344;2023-02-18T02:18:52;23.63;;;17.87;;
9374;SDS011;4727;51.202;6.344;2023-02-18T02:23:56;24.30;;;15.67;;
9374;SDS011;4727;51.202;6.344;2023-02-18T02:29:08;25.47;;;16.10;;
9374;SDS011;4727;51.202;6.344;2023-02-18T02:41:30;29.87;;;20.03;;
9374;SDS011;4727;51.202;6.344;2023-02-18T02:44:10;29.07;;;17.87;;
9374;SDS011;4727;51.202;6.344;2023-02-18T02:46:45;30.43;;;19.50;;
9374;SDS011;4727;51.202;6.344;2023-02-18T02:49:16;27.90;;;18.70;;
9374;SDS011;4727;51.202;6.344;2023-02-18T02:51:47;28.57;;;18.73;;
9374;SDS011;4727;51.202;6.344;2023-02-18T02:54:19;26.37;;;18.27;;
9374;SDS011;4727;51.202;6.344;2023-02-18T02:56:45;25.73;;;17.13;;
9374;SDS011;4727;51.202;6.344;2023-02-18T02:59:14;23.67;;;16.53;;
9374;SDS011;4727;51.202;6.344;2023-02-18T03:01:46;27.50;;;17.80;;
9374;SDS011;4727;51.202;6.344;2023-02-18T03:04:19;22.93;;;14.13;;
9374;SDS011;4727;51.202;6.344;2023-02-18T03:15:06;22.77;;;15.00;;
9374;SDS011;4727;51.202;6.344;2023-02-18T03:17:40;21.93;;;14.47;;
9374;SDS011;4727;51.202;6.344;2023-02-18T03:22:38;22.33;;;14.80;;
9374;SDS011;4727;51.202;6.344;2023-02-18T03:25:06;21.13;;;14.23;;
9374;SDS011;4727;51.202;6.344;2023-02-18T03:30:32;19.17;;;12.87;;
9374;SDS011;4727;51.202;6.344;2023-02-18T03:33:02;20.50;;;12.17;;
9374;SDS011;4727;51.202;6.344;2023-02-18T03:35:28;15.80;;;11.13;;
9374;SDS011;4727;51.202;6.344;2023-02-18T03:37:58;14.83;;;9.67;;
9374;SDS011;4727;51.202;6.344;2023-02-18T03:40:27;13.87;;;8.93;;
9374;SDS011;4727;51.202;6.344;2023-02-18T03:42:53;11.93;;;9.37;;
9374;SDS011;4727;51.202;6.344;2023-02-18T03:45:19;9.93;;;7.57;;
9374;SDS011;4727;51.202;6.344;2023-02-18T03:47:45;8.33;;;7.43;;
9374;SDS011;4727;51.202;6.344;2023-02-18T03:50:11;9.27;;;6.93;;
9374;SDS011;4727;51.202;6.344;2023-02-18T03:52:37;7.73;;;6.57;;
9374;SDS011;4727;51.202;6.344;2023-02-18T03:55:03;6.20;;;5.60;;
9374;SDS011;4727;51.202;6.344;2023-02-18T03:57:30;4.90;;;4.50;;
9374;SDS011;4727;51.202;6.344;2023-02-18T03:59:56;5.03;;;4.50;;
9374;SDS011;4727;51.202;6.344;2023-02-18T04:02:21;5.13;;;4.63;;
9374;SDS011;4727;51.202;6.344;2023-02-18T04:04:47;4.93;;;4.10;;
9374;SDS011;4727;51.202;6.344;2023-02-18T04:07:13;4.27;;;3.87;;
9374;SDS011;4727;51.202;6.344;2023-02-18T04:09:39;4.03;;;3.73;;
9374;SDS011;4727;51.202;6.344;2023-02-18T04:12:05;4.27;;;3.40;;
9374;SDS011;4727;51.202;6.344;2023-02-18T04:14:31;5.63;;;3.93;;
9374;SDS011;4727;51.202;6.344;2023-02-18T04:16:57;4.60;;;4.20;;
9374;SDS011;4727;51.202;6.344;2023-02-18T04:19:23;3.63;;;3.33;;
9374;SDS011;4727;51.202;6.344;2023-02-18T04:21:49;4.37;;;3.97;;
9374;SDS011;4727;51.202;6.344;2023-02-18T04:24:15;4.60;;;4.20;;
9374;SDS011;4727;51.202;6.344;2023-02-18T04:26:41;5.13;;;4.60;;
9374;SDS011;4727;51.202;6.344;2023-02-18T04:29:07;4.40;;;4.10;;
9374;SDS011;4727;51.202;6.344;2023-02-18T04:31:33;4.70;;;4.30;;
9374;SDS011;4727;51.202;6.344;2023-02-18T04:33:59;5.00;;;4.60;;
9374;SDS011;4727;51.202;6.344;2023-02-18T04:36:25;4.37;;;4.07;;
9374;SDS011;4727;51.202;6.344;2023-02-18T04:38:51;3.73;;;3.43;;
9374;SDS011;4727;51.202;6.344;2023-02-18T04:41:17;4.77;;;4.10;;
9374;SDS011;4727;51.202;6.344;2023-02-18T04:43:43;4.47;;;4.17;;
9374;SDS011;4727;51.202;6.344;2023-02-18T04:46:09;4.63;;;4.23;;
9374;SDS011;4727;51.202;6.344;2023-02-18T04:48:35;4.13;;;3.83;;
9374;SDS011;4727;51.202;6.344;2023-02-18T04:51:01;4.63;;;4.23;;
9374;SDS011;4727;51.202;6.344;2023-02-18T04:53:27;4.93;;;4.10;;
9374;SDS011;4727;51.202;6.344;2023-02-18T04:55:53;4.70;;;4.30;;
9374;SDS011;4727;51.202;6.344;2023-02-18T04:58:19;6.30;;;4.90;;
9374;SDS011;4727;51.202;6.344;2023-02-18T05:00:45;5.50;;;4.27;;
9374;SDS011;4727;51.202;6.344;2023-02-18T05:03:12;4.23;;;3.83;;
9374;SDS011;4727;51.202;6.344;2023-02-18T05:05:38;4.87;;;4.47;;
9374;SDS011;4727;51.202;6.344;2023-02-18T05:08:06;4.87;;;4.47;;
9374;SDS011;4727;51.202;6.344;2023-02-18T05:10:32;5.63;;;4.87;;
9374;SDS011;4727;51.202;6.344;2023-02-18T05:12:58;4.73;;;4.27;;
9374;SDS011;4727;51.202;6.344;2023-02-18T05:15:25;5.07;;;4.67;;
9374;SDS011;4727;51.202;6.344;2023-02-18T05:17:50;4.80;;;4.40;;
9374;SDS011;4727;51.202;6.344;2023-02-18T05:20:17;4.47;;;4.10;;
9374;SDS011;4727;51.202;6.344;2023-02-18T05:22:43;4.60;;;4.20;;
9374;SDS011;4727;51.202;6.344;2023-02-18T05:25:08;4.20;;;3.90;;
9374;SDS011;4727;51.202;6.344;2023-02-18T05:27:34;4.50;;;4.10;;
9374;SDS011;4727;51.202;6.344;2023-02-18T05:30:00;6.27;;;4.40;;
9374;SDS011;4727;51.202;6.344;2023-02-18T05:32:26;5.00;;;4.50;;
9374;SDS011;4727;51.202;6.344;2023-02-18T05:34:52;5.10;;;4.60;;
9374;SDS011;4727;51.202;6.344;2023-02-18T05:37:18;5.50;;;4.27;;
9374;SDS011;4727;51.202;6.344;2023-02-18T05:39:44;5.50;;;5.00;;
9374;SDS011;4727;51.202;6.344;2023-02-18T05:42:10;4.23;;;3.83;;
9374;SDS011;4727;51.202;6.344;2023-02-18T05:44:36;5.20;;;4.73;;
9374;SDS011;4727;51.202;6.344;2023-02-18T05:47:04;5.23;;;4.73;;
9374;SDS011;4727;51.202;6.344;2023-02-18T05:49:31;4.53;;;4.13;;
9374;SDS011;4727;51.202;6.344;2023-02-18T05:51:57;5.83;;;5.33;;
9374;SDS011;4727;51.202;6.344;2023-02-18T05:54:23;5.30;;;4.57;;
9374;SDS011;4727;51.202;6.344;2023-02-18T05:56:50;5.37;;;4.97;;
9374;SDS011;4727;51.202;6.344;2023-02-18T05:59:16;5.87;;;5.23;;
9374;SDS011;4727;51.202;6.344;2023-02-18T06:01:42;5.53;;;5.03;;
9374;SDS011;4727;51.202;6.344;2023-02-18T06:04:08;6.10;;;5.10;;
9374;SDS011;4727;51.202;6.344;2023-02-18T06:06:34;5.20;;;4.80;;
9374;SDS011;4727;51.202;6.344;2023-02-18T06:09:01;5.27;;;4.77;;
9374;SDS011;4727;51.202;6.344;2023-02-18T06:11:27;5.40;;;4.90;;
9374;SDS011;4727;51.202;6.344;2023-02-18T06:13:53;5.57;;;5.07;;
9374;SDS011;4727;51.202;6.344;2023-02-18T06:16:19;4.63;;;4.33;;
9374;SDS011;4727;51.202;6.344;2023-02-18T06:18:45;4.90;;;4.50;;
9374;SDS011;4727;51.202;6.344;2023-02-18T06:21:11;5.40;;;5.00;;
9374;SDS011;4727;51.202;6.344;2023-02-18T06:23:37;5.10;;;4.60;;
9374;SDS011;4727;51.202;6.344;2023-02-18T06:26:03;4.47;;;4.07;;
9374;SDS011;4727;51.202;6.344;2023-02-18T06:28:29;4.37;;;4.07;;
9374;SDS011;4727;51.202;6.344;2023-02-18T06:30:55;4.07;;;3.77;;
9374;SDS011;4727;51.202;6.344;2023-02-18T06:33:21;3.63;;;3.43;;
9374;SDS011;4727;51.202;6.344;2023-02-18T06:36:00;3.70;;;3.50;;
9374;SDS011;4727;51.202;6.344;2023-02-18T06:38:26;3.53;;;3.23;;
9374;SDS011;4727;51.202;6.344;2023-02-18T06:40:52;3.27;;;3.07;;
9374;SDS011;4727;51.202;6.344;2023-02-18T06:43:19;3.50;;;3.30;;
9374;SDS011;4727;51.202;6.344;2023-02-18T06:45:45;4.20;;;3.10;;
9374;SDS011;4727;51.202;6.344;2023-02-18T06:48:11;2.90;;;2.73;;
9374;SDS011;4727;51.202;6.344;2023-02-18T06:50:38;3.03;;;2.30;;
9374;SDS011;4727;51.202;6.344;2023-02-18T06:53:04;3.00;;;2.80;;
9374;SDS011;4727;51.202;6.344;2023-02-18T06:55:31;2.80;;;2.70;;
9374;SDS011;4727;51.202;6.344;2023-02-18T06:57:56;2.57;;;2.47;;
9374;SDS011;4727;51.202;6.344;2023-02-18T07:00:23;5.00;;;4.57;;
9374;SDS011;4727;51.202;6.344;2023-02-18T07:02:49;2.70;;;2.60;;
9374;SDS011;4727;51.202;6.344;2023-02-18T07:05:15;3.10;;;2.80;;
9374;SDS011;4727;51.202;6.344;2023-02-18T07:07:40;2.60;;;2.50;;
9374;SDS011;4727;51.202;6.344;2023-02-18T07:10:07;3.00;;;2.80;;
9374;SDS011;4727;51.202;6.344;2023-02-18T07:12:33;3.13;;;2.93;;
9374;SDS011;4727;51.202;6.344;2023-02-18T07:14:59;3.70;;;2.73;;
9374;SDS011;4727;51.202;6.344;2023-02-18T07:17:25;3.40;;;3.20;;
9374;SDS011;4727;51.202;6.344;2023-02-18T07:19:51;3.20;;;3.00;;
9374;SDS011;4727;51.202;6.344;2023-02-18T07:22:17;3.17;;;2.97;;
9374;SDS011;4727;51.202;6.344;2023-02-18T07:24:43;3.80;;;3.50;;
9374;SDS011;4727;51.202;6.344;2023-02-18T07:27:09;3.30;;;3.10;;
9374;SDS011;4727;51.202;6.344;2023-02-18T07:29:35;3.53;;;3.30;;
9374;SDS011;4727;51.202;6.344;2023-02-18T07:32:01;3.10;;;2.90;;
9374;SDS011;4727;51.202;6.344;2023-02-18T07:34:27;3.50;;;3.20;;
9374;SDS011;4727;51.202;6.344;2023-02-18T07:36:53;3.23;;;3.03;;
9374;SDS011;4727;51.202;6.344;2023-02-18T07:39:19;3.23;;;3.03;;
9374;SDS011;4727;51.202;6.344;2023-02-18T07:41:45;3.00;;;2.80;;
9374;SDS011;4727;51.202;6.344;2023-02-18T07:44:12;3.03;;;2.83;;
9374;SDS011;4727;51.202;6.344;2023-02-18T07:46:39;3.50;;;3.07;;
9374;SDS011;4727;51.202;6.344;2023-02-18T07:49:05;4.37;;;2.90;;
9374;SDS011;4727;51.202;6.344;2023-02-18T07:51:31;5.80;;;3.40;;
9374;SDS011;4727;51.202;6.344;2023-02-18T07:54:00;3.83;;;3.07;;
9374;SDS011;4727;51.202;6.344;2023-02-18T07:56:26;7.83;;;3.60;;
9374;SDS011;4727;51.202;6.344;2023-02-18T07:58:52;4.60;;;3.53;;
9374;SDS011;4727;51.202;6.344;2023-02-18T08:01:18;4.03;;;3.50;;
9374;SDS011;4727;51.202;6.344;2023-02-18T08:03:44;4.17;;;3.73;;
9374;SDS011;4727;51.202;6.344;2023-02-18T08:06:21;6.67;;;3.63;;
9374;SDS011;4727;51.202;6.344;2023-02-18T08:08:48;3.50;;;3.20;;
9374;SDS011;4727;51.202;6.344;2023-02-18T08:11:14;5.33;;;3.53;;
9374;SDS011;4727;51.202;6.344;2023-02-18T08:13:40;5.97;;;3.83;;
9374;SDS011;4727;51.202;6.344;2023-02-18T08:16:06;6.07;;;3.73;;
9374;SDS011;4727;51.202;6.344;2023-02-18T08:18:32;9.57;;;4.03;;
9374;SDS011;4727;51.202;6.344;2023-02-18T08:20:58;7.83;;;4.17;;
9374;SDS011;4727;51.202;6.344;2023-02-18T08:23:24;10.50;;;4.40;;
9374;SDS011;4727;51.202;6.344;2023-02-18T08:25:50;6.77;;;3.90;;
9374;SDS011;4727;51.202;6.344;2023-02-18T08:28:18;5.00;;;3.97;;
9374;SDS011;4727;51.202;6.344;2023-02-18T08:30:47;5.63;;;3.80;;
9374;SDS011;4727;51.202;6.344;2023-02-18T08:33:14;6.50;;;4.17;;
9374;SDS011;4727;51.202;6.344;2023-02-18T08:35:40;5.83;;;3.70;;
9374;SDS011;4727;51.202;6.344;2023-02-18T08:38:06;3.10;;;2.63;;
9374;SDS011;4727;51.202;6.344;2023-02-18T08:40:32;6.37;;;3.47;;
9374;SDS011;4727;51.202;6.344;2023-02-18T08:42:58;11.27;;;4.27;;
9374;SDS011;4727;51.202;6.344;2023-02-18T08:45:24;8.03;;;3.90;;
9374;SDS011;4727;51.202;6.344;2023-02-18T08:47:50;7.87;;;4.10;;
9374;SDS011;4727;51.202;6.344;2023-02-18T08:50:16;8.33;;;3.90;;
9374;SDS011;4727;51.202;6.344;2023-02-18T08:52:44;7.63;;;3.37;;
9374;SDS011;4727;51.202;6.344;2023-02-18T08:55:10;8.43;;;3.53;;
9374;SDS011;4727;51.202;6.344;2023-02-18T08:57:36;9.67;;;4.40;;
9374;SDS011;4727;51.202;6.344;2023-02-18T09:00:02;11.73;;;3.40;;
9374;SDS011;4727;51.202;6.344;2023-02-18T09:02:29;6.83;;;3.80;;
9374;SDS011;4727;51.202;6.344;2023-02-18T09:04:55;7.47;;;3.43;;
9374;SDS011;4727;51.202;6.344;2023-02-18T09:07:21;8.10;;;3.40;;
9374;SDS011;4727;51.202;6.344;2023-02-18T09:09:47;10.20;;;3.33;;
9374;SDS011;4727;51.202;6.344;2023-02-18T09:12:13;8.37;;;3.27;;
9374;SDS011;4727;51.202;6.344;2023-02-18T09:14:39;9.83;;;3.93;;
9374;SDS011;4727;51.202;6.344;2023-02-18T09:17:05;9.53;;;3.63;;
9374;SDS011;4727;51.202;6.344;2023-02-18T09:19:31;8.80;;;3.43;;
9374;SDS011;4727;51.202;6.344;2023-02-18T09:21:57;8.10;;;3.70;;
9374;SDS011;4727;51.202;6.344;2023-02-18T09:24:23;11.70;;;5.07;;
9374;SDS011;4727;51.202;6.344;2023-02-18T09:26:49;9.80;;;4.47;;
9374;SDS011;4727;51.202;6.344;2023-02-18T09:29:16;14.03;;;5.80;;
9374;SDS011;4727;51.202;6.344;2023-02-18T09:31:43;12.63;;;5.43;;
9374;SDS011;4727;51.202;6.344;2023-02-18T09:34:09;11.73;;;5.40;;
9374;SDS011;4727;51.202;6.344;2023-02-18T09:36:37;8.87;;;4.20;;
9374;SDS011;4727;51.202;6.344;2023-02-18T09:39:04;11.10;;;4.33;;
9374;SDS011;4727;51.202;6.344;2023-02-18T09:41:36;9.47;;;3.73;;
9374;SDS011;4727;51.202;6.344;2023-02-18T09:44:24;6.60;;;3.83;;
9374;SDS011;4727;51.202;6.344;2023-02-18T09:47:03;10.77;;;3.90;;
9374;SDS011;4727;51.202;6.344;2023-02-18T09:49:31;10.47;;;4.47;;
9374;SDS011;4727;51.202;6.344;2023-02-18T09:52:04;12.70;;;4.13;;
9374;SDS011;4727;51.202;6.344;2023-02-18T09:54:30;6.30;;;3.63;;
9374;SDS011;4727;51.202;6.344;2023-02-18T09:56:56;7.30;;;4.47;;
9374;SDS011;4727;51.202;6.344;2023-02-18T09:59:23;6.37;;;3.77;;
9374;SDS011;4727;51.202;6.344;2023-02-18T10:01:50;10.70;;;4.17;;
9374;SDS011;4727;51.202;6.344;2023-02-18T10:04:21;9.93;;;4.00;;
9374;SDS011;4727;51.202;6.344;2023-02-18T10:06:48;11.23;;;4.00;;
9374;SDS011;4727;51.202;6.344;2023-02-18T10:09:17;12.07;;;4.03;;
9374;SDS011;4727;51.202;6.344;2023-02-18T10:11:45;9.57;;;3.57;;
9374;SDS011;4727;51.202;6.344;2023-02-18T10:14:13;11.60;;;3.90;;
9374;SDS011;4727;51.202;6.344;2023-02-18T10:16:40;7.00;;;3.50;;
9374;SDS011;4727;51.202;6.344;2023-02-18T10:19:23;9.60;;;3.87;;
9374;SDS011;4727;51.202;6.344;2023-02-18T10:21:50;10.73;;;3.80;;
9374;SDS011;4727;51.202;6.344;2023-02-18T10:26:52;15.50;;;5.10;;
9374;SDS011;4727;51.202;6.344;2023-02-18T10:29:19;10.63;;;4.07;;
9374;SDS011;4727;51.202;6.344;2023-02-18T10:31:51;7.33;;;3.90;;
9374;SDS011;4727;51.202;6.344;2023-02-18T10:36:52;12.17;;;4.83;;
9374;SDS011;4727;51.202;6.344;2023-02-18T10:41:59;10.33;;;4.80;;
9374;SDS011;4727;51.202;6.344;2023-02-18T10:47:15;9.37;;;4.60;;
9374;SDS011;4727;51.202;6.344;2023-02-18T10:52:24;8.43;;;4.63;;
9374;SDS011;4727;51.202;6.344;2023-02-18T10:54:52;8.47;;;4.97;;
9374;SDS011;4727;51.202;6.344;2023-02-18T10:57:22;9.80;;;5.23;;
9374;SDS011;4727;51.202;6.344;2023-02-18T10:59:59;9.53;;;5.23;;
9374;SDS011;4727;51.202;6.344;2023-02-18T11:02:29;7.47;;;5.07;;
9374;SDS011;4727;51.202;6.344;2023-02-18T11:04:59;10.23;;;5.60;;
9374;SDS011;4727;51.202;6.344;2023-02-18T11:07:31;12.43;;;6.17;;
9374;SDS011;4727;51.202;6.344;2023-02-18T11:09:59;14.47;;;6.50;;
9374;SDS011;4727;51.202;6.344;2023-02-18T11:12:34;10.20;;;6.00;;
9374;SDS011;4727;51.202;6.344;2023-02-18T11:17:32;11.07;;;5.60;;
9374;SDS011;4727;51.202;6.344;2023-02-18T11:19:59;11.97;;;6.33;;
9374;SDS011;4727;51.202;6.344;2023-02-18T11:22:30;14.57;;;6.43;;
9374;SDS011;4727;51.202;6.344;2023-02-18T11:25:15;12.93;;;6.60;;
9374;SDS011;4727;51.202;6.344;2023-02-18T11:27:43;14.00;;;6.53;;
9374;SDS011;4727;51.202;6.344;2023-02-18T11:30:54;10.77;;;6.23;;
9374;SDS011;4727;51.202;6.344;2023-02-18T11:33:07;11.17;;;6.37;;
9374;SDS011;4727;51.202;6.344;2023-02-18T11:35:34;12.30;;;7.03;;
9374;SDS011;4727;51.202;6.344;2023-02-18T11:38:01;11.33;;;6.50;;
9374;SDS011;4727;51.202;6.344;2023-02-18T11:40:29;10.20;;;6.53;;
9374;SDS011;4727;51.202;6.344;2023-02-18T11:43:03;13.63;;;6.67;;
9374;SDS011;4727;51.202;6.344;2023-02-18T11:45:30;14.63;;;6.77;;
9374;SDS011;4727;51.202;6.344;2023-02-18T11:47:58;8.57;;;6.43;;
9374;SDS011;4727;51.202;6.344;2023-02-18T11:50:24;12.60;;;6.23;;
9374;SDS011;4727;51.202;6.344;2023-02-18T11:52:50;10.50;;;7.07;;
9374;SDS011;4727;51.202;6.344;2023-02-18T11:55:19;10.43;;;6.37;;
9374;SDS011;4727;51.202;6.344;2023-02-18T11:57:50;8.53;;;6.43;;
9374;SDS011;4727;51.202;6.344;2023-02-18T12:00:21;7.13;;;6.43;;
9374;SDS011;4727;51.202;6.344;2023-02-18T12:02:48;8.83;;;6.93;;
9374;SDS011;4727;51.202;6.344;2023-02-18T12:05:20;11.37;;;7.13;;
9374;SDS011;4727;51.202;6.344;2023-02-18T12:08:09;10.40;;;8.20;;
9374;SDS011;4727;51.202;6.344;2023-02-18T12:10:34;11.47;;;7.63;;
9374;SDS011;4727;51.202;6.344;2023-02-18T12:13:06;7.77;;;7.07;;
9374;SDS011;4727;51.202;6.344;2023-02-18T12:15:38;8.13;;;6.10;;
9374;SDS011;4727;51.202;6.344;2023-02-18T12:18:10;9.33;;;6.67;;
9374;SDS011;4727;51.202;6.344;2023-02-18T12:20:45;8.17;;;6.80;;
9374;SDS011;4727;51.202;6.344;2023-02-18T12:23:19;13.27;;;6.90;;
9374;SDS011;4727;51.202;6.344;2023-02-18T12:26:06;10.03;;;7.17;;
9374;SDS011;4727;51.202;6.344;2023-02-18T12:33:58;9.07;;;6.60;;
9374;SDS011;4727;51.202;6.344;2023-02-18T12:36:30;8.60;;;6.57;;
9374;SDS011;4727;51.202;6.344;2023-02-18T12:39:05;8.57;;;6.73;;
9374;SDS011;4727;51.202;6.344;2023-02-18T12:46:51;11.83;;;6.90;;
9374;SDS011;4727;51.202;6.344;2023-02-18T13:02:22;11.20;;;8.20;;
9374;SDS011;4727;51.202;6.344;2023-02-18T13:04:57;13.63;;;8.77;;
9374;SDS011;4727;51.202;6.344;2023-02-18T13:12:27;10.27;;;7.93;;
9374;SDS011;4727;51.202;6.344;2023-02-18T13:15:02;12.70;;;7.70;;
9374;SDS011;4727;51.202;6.344;2023-02-18T13:17:31;9.50;;;6.83;;
9374;SDS011;4727;51.202;6.344;2023-02-18T13:20:00;14.10;;;8.67;;
9374;SDS011;4727;51.202;6.344;2023-02-18T13:22:28;12.07;;;8.13;;
9374;SDS011;4727;51.202;6.344;2023-02-18T13:24:55;9.57;;;8.40;;
9374;SDS011;4727;51.202;6.344;2023-02-18T13:32:21;11.57;;;8.60;;
9374;SDS011;4727;51.202;6.344;2023-02-18T13:34:51;11.70;;;8.63;;
9374;SDS011;4727;51.202;6.344;2023-02-18T13:37:42;9.57;;;8.23;;
9374;SDS011;4727;51.202;6.344;2023-02-18T13:40:16;12.87;;;8.80;;
9374;SDS011;4727;51.202;6.344;2023-02-18T13:42:43;11.07;;;9.37;;
9374;SDS011;4727;51.202;6.344;2023-02-18T13:45:28;12.83;;;9.50;;
9374;SDS011;4727;51.202;6.344;2023-02-18T13:47:55;11.53;;;9.73;;
9374;SDS011;4727;51.202;6.344;2023-02-18T13:55:47;12.47;;;9.33;;
9374;SDS011;4727;51.202;6.344;2023-02-18T13:58:16;10.77;;;9.37;;
9374;SDS011;4727;51.202;6.344;2023-02-18T14:00:48;13.47;;;9.20;;
9374;SDS011;4727;51.202;6.344;2023-02-18T14:03:34;12.90;;;9.43;;
9374;SDS011;4727;51.202;6.344;2023-02-18T14:06:11;15.07;;;10.07;;
9374;SDS011;4727;51.202;6.344;2023-02-18T14:08:38;13.10;;;10.10;;
9374;SDS011;4727;51.202;6.344;2023-02-18T14:13:44;13.43;;;9.90;;
9374;SDS011;4727;51.202;6.344;2023-02-18T14:53:26;10.23;;;9.13;;
9374;SDS011;4727;51.202;6.344;2023-02-18T14:55:54;10.63;;;8.77;;
9374;SDS011;4727;51.202;6.344;2023-02-18T15:00:48;10.00;;;8.93;;
9374;SDS011;4727;51.202;6.344;2023-02-18T15:03:16;10.80;;;8.70;;
9374;SDS011;4727;51.202;6.344;2023-02-18T15:05:43;9.53;;;8.63;;
9374;SDS011;4727;51.202;6.344;2023-02-18T15:08:20;9.77;;;8.87;;
9374;SDS011;4727;51.202;6.344;2023-02-18T15:16:15;11.43;;;9.53;;
9374;SDS011;4727;51.202;6.344;2023-02-18T15:18:44;10.87;;;9.20;;
9374;SDS011;4727;51.202;6.344;2023-02-18T15:21:32;10.50;;;8.77;;
9374;SDS011;4727;51.202;6.344;2023-02-18T15:24:22;10.17;;;8.50;;
9374;SDS011;4727;51.202;6.344;2023-02-18T15:26:49;9.30;;;8.37;;
9374;SDS011;4727;51.202;6.344;2023-02-18T15:29:34;10.40;;;8.70;;
9374;SDS011;4727;51.202;6.344;2023-02-18T15:32:01;16.23;;;9.03;;
9374;SDS011;4727;51.202;6.344;2023-02-18T15:34:32;9.83;;;8.33;;
9374;SDS011;4727;51.202;6.344;2023-02-18T15:36:59;9.60;;;8.30;;
9374;SDS011;4727;51.202;6.344;2023-02-18T15:39:26;11.53;;;8.43;;
9374;SDS011;4727;51.202;6.344;2023-02-18T15:41:52;10.43;;;8.30;;
9374;SDS011;4727;51.202;6.344;2023-02-18T15:44:23;9.90;;;8.40;;
9374;SDS011;4727;51.202;6.344;2023-02-18T15:46:50;9.33;;;8.13;;
9374;SDS011;4727;51.202;6.344;2023-02-18T15:49:17;8.93;;;7.70;;
9374;SDS011;4727;51.202;6.344;2023-02-18T15:51:44;13.30;;;9.40;;
9374;SDS011;4727;51.202;6.344;2023-02-18T15:54:14;8.13;;;7.37;;
9374;SDS011;4727;51.202;6.344;2023-02-18T15:56:42;11.30;;;7.97;;
9374;SDS011;4727;51.202;6.344;2023-02-18T16:01:35;11.93;;;7.90;;
9374;SDS011;4727;51.202;6.344;2023-02-18T16:04:01;13.47;;;8.33;;
9374;SDS011;4727;51.202;6.344;2023-02-18T16:06:30;8.73;;;7.83;;
9374;SDS011;4727;51.202;6.344;2023-02-18T16:09:06;9.57;;;7.60;;
9374;SDS011;4727;51.202;6.344;2023-02-18T16:11:38;9.07;;;7.60;;
9374;SDS011;4727;51.202;6.344;2023-02-18T16:14:05;13.57;;;6.87;;
9374;SDS011;4727;51.202;6.344;2023-02-18T16:16:32;7.43;;;6.70;;
9374;SDS011;4727;51.202;6.344;2023-02-18T16:18:59;12.77;;;9.63;;
9374;SDS011;4727;51.202;6.344;2023-02-18T16:21:29;10.50;;;8.17;;
9374;SDS011;4727;51.202;6.344;2023-02-18T16:23:58;12.00;;;8.90;;
9374;SDS011;4727;51.202;6.344;2023-02-18T16:26:28;14.77;;;9.23;;
9374;SDS011;4727;51.202;6.344;2023-02-18T16:29:00;13.17;;;8.10;;
9374;SDS011;4727;51.202;6.344;2023-02-18T16:31:26;9.43;;;7.70;;
9374;SDS011;4727;51.202;6.344;2023-02-18T16:33:52;14.17;;;8.00;;
9374;SDS011;4727;51.202;6.344;2023-02-18T16:36:18;10.60;;;7.53;;
9374;SDS011;4727;51.202;6.344;2023-02-18T16:38:46;9.23;;;7.80;;
9374;SDS011;4727;51.202;6.344;2023-02-18T16:41:13;12.33;;;8.10;;
9374;SDS011;4727;51.202;6.344;2023-02-18T16:43:39;11.27;;;8.70;;
9374;SDS011;4727;51.202;6.344;2023-02-18T16:46:07;9.57;;;7.20;;
9374;SDS011;4727;51.202;6.344;2023-02-18T16:48:37;14.80;;;8.10;;
9374;SDS011;4727;51.202;6.344;2023-02-18T16:51:05;12.00;;;7.77;;
9374;SDS011;4727;51.202;6.344;2023-02-18T16:53:32;9.53;;;7.80;;
9374;SDS011;4727;51.202;6.344;2023-02-18T16:55:58;9.80;;;7.40;;
9374;SDS011;4727;51.202;6.344;2023-02-18T16:58:25;10.57;;;7.77;;
9374;SDS011;4727;51.202;6.344;2023-02-18T17:00:51;10.27;;;8.30;;
9374;SDS011;4727;51.202;6.344;2023-02-18T17:03:17;10.73;;;7.77;;
9374;SDS011;4727;51.202;6.344;2023-02-18T17:05:44;8.70;;;7.80;;
9374;SDS011;4727;51.202;6.344;2023-02-18T17:08:17;10.57;;;8.77;;
9374;SDS011;4727;51.202;6.344;2023-02-18T17:10:45;15.00;;;7.73;;
9374;SDS011;4727;51.202;6.344;2023-02-18T17:13:12;10.03;;;8.03;;
9374;SDS011;4727;51.202;6.344;2023-02-18T17:15:38;8.33;;;7.43;;
9374;SDS011;4727;51.202;6.344;2023-02-18T17:18:05;9.07;;;7.80;;
9374;SDS011;4727;51.202;6.344;2023-02-18T17:20:31;10.30;;;8.50;;
9374;SDS011;4727;51.202;6.344;2023-02-18T17:22:57;12.30;;;8.37;;
9374;SDS011;4727;51.202;6.344;2023-02-18T17:25:26;9.57;;;8.60;;
9374;SDS011;4727;51.202;6.344;2023-02-18T17:27:54;10.00;;;8.93;;
9374;SDS011;4727;51.202;6.344;2023-02-18T17:30:20;9.00;;;8.17;;